createdAt,value
2022-08-09T00:00:00.296Z,2.08
2022-08-09T00:06:18.309Z,1.95
2022-08-09T00:11:24.234Z,2.03
2022-08-09T00:16:36.622Z,2.05
2022-08-09T00:21:43.175Z,2.10
2022-08-09T00:26:59.802Z,1.83
2022-08-09T00:32:01.380Z,2.30
2022-08-09T00:37:03.857Z,2.00
2022-08-09T00:44:19.800Z,2.00
2022-08-09T00:49:28.110Z,2.08
2022-08-09T00:54:34.919Z,2.35
2022-08-09T00:59:41.022Z,2.00
2022-08-09T01:05:14.048Z,2.22
2022-08-09T01:12:14.010Z,2.08
2022-08-09T01:17:30.382Z,2.42
2022-08-09T01:24:44.072Z,2.25
2022-08-09T01:29:59.539Z,2.25
2022-08-09T01:35:28.620Z,2.40
2022-08-09T01:40:44.495Z,2.45
2022-08-09T01:45:47.669Z,2.28
2022-08-09T01:50:55.241Z,2.58
2022-08-09T01:55:57.530Z,2.20
2022-08-09T02:00:59.851Z,2.20
2022-08-09T02:06:07.048Z,2.70
2022-08-09T02:11:16.665Z,2.53
2022-08-09T02:16:18.645Z,2.20
2022-08-09T02:21:40.540Z,2.25
2022-08-09T02:26:42.792Z,2.72
2022-08-09T02:31:45.691Z,2.20
2022-08-09T02:36:52.788Z,2.40
2022-08-09T02:41:58.151Z,2.70
2022-08-09T02:47:04.616Z,2.33
2022-08-09T02:52:08.476Z,2.10
2022-08-09T02:57:13.949Z,2.60
2022-08-09T03:02:24.909Z,2.37
2022-08-09T03:07:27.013Z,2.67
2022-08-09T03:12:29.077Z,2.42
2022-08-09T03:17:32.085Z,1.92
2022-08-09T03:22:42.259Z,2.03
2022-08-09T03:27:49.948Z,2.72
2022-08-09T03:32:53.792Z,2.45
2022-08-09T03:37:58.665Z,2.30
2022-08-09T03:42:59.784Z,2.12
2022-08-09T03:48:01.117Z,2.25
2022-08-09T03:53:04.142Z,2.60
2022-08-09T03:58:16.855Z,2.35
2022-08-09T04:03:25.009Z,2.50
2022-08-09T04:08:47.627Z,2.17
2022-08-09T04:14:53.255Z,2.30
2022-08-09T04:20:04.228Z,2.55
2022-08-09T04:25:06.386Z,2.10
2022-08-09T04:30:12.128Z,2.65
2022-08-09T04:35:13.724Z,2.83
2022-08-09T04:40:29.054Z,2.60
2022-08-09T04:45:53.133Z,2.78
2022-08-09T04:50:55.056Z,2.53
2022-08-09T04:55:59.700Z,2.53
2022-08-09T05:01:01.323Z,2.77
2022-08-09T05:06:06.794Z,3.37
2022-08-09T05:11:08.321Z,2.80
2022-08-09T05:16:10.333Z,2.58
2022-08-09T05:21:20.786Z,2.92
2022-08-09T05:31:47.462Z,2.85
2022-08-09T05:36:53.233Z,2.92
2022-08-09T05:41:54.823Z,2.97
2022-08-09T05:46:55.748Z,2.92
2022-08-09T05:51:56.895Z,2.50
2022-08-09T05:56:58.789Z,3.40
2022-08-09T06:02:00.209Z,2.60
2022-08-09T06:07:03.566Z,2.60
2022-08-09T06:12:06.682Z,2.85
2022-08-09T06:17:10.305Z,2.70
2022-08-09T06:22:14.995Z,2.70
2022-08-09T06:27:16.337Z,2.75
2022-08-09T06:32:53.364Z,3.00
2022-08-09T06:38:06.779Z,2.97
2022-08-09T06:43:10.303Z,2.97
2022-08-09T06:48:11.715Z,2.72
2022-08-09T06:53:17.660Z,2.90
2022-08-09T07:00:47.221Z,3.12
2022-08-09T07:06:03.534Z,2.22
2022-08-09T07:11:06.996Z,3.17
2022-08-09T07:16:43.972Z,2.92
2022-08-09T07:21:57.767Z,2.40
2022-08-09T07:27:01.118Z,2.62
2022-08-09T07:32:02.777Z,2.28
2022-08-09T07:37:04.737Z,3.00
2022-08-09T07:42:06.440Z,2.65
2022-08-09T07:47:07.869Z,2.85
2022-08-09T07:52:17.200Z,2.33
2022-08-09T07:57:20.310Z,2.10
2022-08-09T08:02:23.632Z,2.20
2022-08-09T08:08:44.385Z,2.10
2022-08-09T08:14:04.843Z,2.17
2022-08-09T08:19:07.314Z,2.47
2022-08-09T08:24:11.555Z,2.42
2022-08-09T08:29:13.393Z,2.12
2022-08-09T08:34:15.814Z,2.33
2022-08-09T08:39:22.237Z,2.15
2022-08-09T08:44:28.943Z,2.45
2022-08-09T08:49:38.334Z,2.22
2022-08-09T08:54:47.790Z,2.10
2022-08-09T08:59:53.926Z,2.00
2022-08-09T09:05:03.054Z,2.03
2022-08-09T09:10:09.458Z,2.40
2022-08-09T09:15:12.127Z,2.25
2022-08-09T09:20:34.467Z,1.75
2022-08-09T09:26:00.868Z,2.33
2022-08-09T09:31:17.188Z,2.12
2022-08-09T09:36:20.677Z,1.70
2022-08-09T09:41:48.868Z,2.20
2022-08-09T09:46:55.850Z,1.80
2022-08-09T09:52:05.702Z,1.92
2022-08-09T09:58:02.503Z,1.80
2022-08-09T10:03:11.772Z,1.87
2022-08-09T10:08:27.633Z,1.58
2022-08-09T10:13:43.144Z,1.58
2022-08-09T10:18:54.389Z,1.58
2022-08-09T10:23:59.771Z,1.73
2022-08-09T10:29:35.993Z,1.60
2022-08-09T10:35:31.548Z,1.92
2022-08-09T10:45:58.746Z,1.50
2022-08-09T10:53:11.066Z,1.80
2022-08-09T10:58:34.765Z,1.80
2022-08-09T11:03:50.941Z,1.70
2022-08-09T11:08:59.573Z,1.90
2022-08-09T11:20:11.313Z,1.73
2022-08-09T11:25:45.279Z,1.50
2022-08-09T11:30:48.984Z,2.03
2022-08-09T11:35:58.735Z,1.50
2022-08-09T11:42:52.485Z,1.87
2022-08-09T11:48:01.282Z,1.70
2022-08-09T11:54:00.008Z,1.58
2022-08-09T11:59:04.705Z,1.80
2022-08-09T12:04:09.617Z,2.20
2022-08-09T12:09:27.283Z,1.77
2022-08-09T12:15:04.013Z,1.70
2022-08-09T12:20:22.461Z,1.55
2022-08-09T12:25:35.914Z,1.80
2022-08-09T12:30:39.549Z,1.40
2022-08-09T12:35:42.933Z,1.73
2022-08-09T12:40:51.761Z,1.95
2022-08-09T12:45:59.746Z,1.45
2022-08-09T12:51:04.003Z,1.70
2022-08-09T12:56:39.697Z,2.75
2022-08-09T13:02:09.499Z,1.83
2022-08-09T13:07:15.639Z,2.03
2022-08-09T13:12:16.536Z,1.87
2022-08-09T13:17:44.323Z,1.67
2022-08-09T13:24:06.845Z,1.75
2022-08-09T13:30:03.603Z,1.90
2022-08-09T13:35:05.922Z,1.67
2022-08-09T13:41:54.073Z,1.73
2022-08-09T13:47:29.011Z,1.67
2022-08-09T13:52:35.855Z,1.67
2022-08-09T14:03:16.604Z,1.80
2022-08-09T14:09:02.101Z,1.80
2022-08-09T14:14:24.136Z,1.85
2022-08-09T14:19:27.222Z,1.65
2022-08-09T14:24:34.365Z,1.70
2022-08-09T14:30:35.577Z,2.20
2022-08-09T14:35:52.994Z,1.67
2022-08-09T14:41:04.496Z,1.73
2022-08-09T14:46:57.306Z,1.73
2022-08-09T14:52:06.090Z,1.73
2022-08-09T14:57:07.773Z,1.42
2022-08-09T15:02:09.020Z,1.70
2022-08-09T15:07:13.297Z,1.50
2022-08-09T15:12:14.660Z,1.75
2022-08-09T15:17:16.219Z,1.52
2022-08-09T15:22:18.811Z,1.37
2022-08-09T15:27:22.931Z,1.42
2022-08-09T15:32:28.634Z,1.60
2022-08-09T15:37:38.049Z,1.60
2022-08-09T15:42:58.817Z,1.73
2022-08-09T15:48:05.610Z,1.55
2022-08-09T15:53:32.664Z,1.42
2022-08-09T15:59:06.846Z,1.62
2022-08-09T16:04:13.465Z,1.70
2022-08-09T16:09:14.834Z,1.77
2022-08-09T16:14:15.879Z,1.70
2022-08-09T16:19:25.203Z,1.70
2022-08-09T16:24:33.108Z,1.50
2022-08-09T16:29:36.930Z,1.50
2022-08-09T16:34:56.525Z,1.67
2022-08-09T16:40:04.783Z,1.77
2022-08-09T16:45:08.456Z,1.70
2022-08-09T16:50:31.321Z,1.80
2022-08-09T16:55:58.795Z,2.15
2022-08-09T17:01:03.930Z,2.00
2022-08-09T17:06:28.185Z,1.62
2022-08-09T17:11:40.239Z,2.08
2022-08-09T17:16:44.011Z,1.80
2022-08-09T17:21:46.643Z,1.80
2022-08-09T17:31:56.826Z,1.70
2022-08-09T17:36:59.725Z,2.28
2022-08-09T17:42:03.985Z,1.92
2022-08-09T17:47:05.345Z,2.10
2022-08-09T17:52:20.607Z,2.25
2022-08-09T17:58:03.245Z,2.10
2022-08-09T18:03:05.425Z,2.10
2022-08-09T18:08:06.419Z,1.77
2022-08-09T18:13:43.739Z,1.70
2022-08-09T18:19:04.094Z,1.77
2022-08-09T18:25:59.238Z,2.10
2022-08-09T18:31:00.188Z,1.57
2022-08-09T18:36:01.319Z,1.70
2022-08-09T18:41:02.218Z,1.60
2022-08-09T18:46:50.533Z,1.87
2022-08-09T18:52:04.837Z,1.80
2022-08-09T18:57:06.890Z,1.73
2022-08-09T19:02:10.382Z,2.00
2022-08-09T19:07:16.495Z,1.80
2022-08-09T19:12:19.272Z,1.93
2022-08-09T19:17:22.789Z,1.80
2022-08-09T19:22:23.787Z,1.75
2022-08-09T19:27:28.543Z,1.73
2022-08-09T19:32:31.592Z,2.35
2022-08-09T19:37:40.892Z,2.15
2022-08-09T19:42:56.323Z,2.00
2022-08-09T19:47:58.021Z,2.30
2022-08-09T19:53:04.184Z,2.10
2022-08-09T19:58:06.520Z,2.17
2022-08-09T20:04:12.549Z,2.37
2022-08-09T20:09:20.610Z,2.10
2022-08-09T20:14:50.504Z,2.15
2022-08-09T20:19:54.980Z,2.22
2022-08-09T20:24:56.324Z,2.23
2022-08-09T20:29:58.058Z,2.10
2022-08-09T20:34:59.156Z,2.23
2022-08-09T20:40:17.751Z,1.95
2022-08-09T20:45:57.279Z,2.17
2022-08-09T20:51:03.984Z,2.20
2022-08-09T20:56:09.121Z,2.60
2022-08-09T21:01:34.932Z,2.33
2022-08-09T21:06:51.007Z,2.22
2022-08-09T21:18:22.356Z,2.17
2022-08-09T21:23:47.578Z,2.20
2022-08-09T21:28:56.875Z,2.17
2022-08-09T21:33:58.206Z,2.42
2022-08-09T21:38:59.842Z,2.30
2022-08-09T21:44:01.762Z,2.70
2022-08-09T21:49:04.676Z,2.10
2022-08-09T21:54:08.313Z,2.12
2022-08-09T21:59:09.488Z,2.47
2022-08-09T22:04:11.271Z,1.95
2022-08-09T22:09:13.144Z,2.83
2022-08-09T22:14:16.720Z,2.20
2022-08-09T22:19:57.867Z,2.20
2022-08-09T22:26:08.074Z,2.33
2022-08-09T22:31:13.380Z,2.10
2022-08-09T22:36:19.352Z,2.10
2022-08-09T22:41:20.480Z,2.30
2022-08-09T22:48:15.223Z,2.47
2022-08-09T22:53:58.568Z,2.33
2022-08-09T22:59:57.273Z,2.25
2022-08-09T23:05:00.334Z,2.30
2022-08-09T23:10:01.375Z,2.30
2022-08-09T23:15:04.256Z,2.60
2022-08-09T23:20:07.802Z,2.60
2022-08-09T23:25:10.208Z,2.40
2022-08-09T23:30:11.419Z,2.60
2022-08-09T23:35:12.378Z,2.15
2022-08-09T23:40:13.274Z,2.60
2022-08-09T23:45:37.332Z,2.92
2022-08-09T23:50:40.287Z,2.25
2022-08-09T23:55:45.098Z,2.30
